CWGZ

Grise Fiord Airport

Canada
METAR CWGZ 232100Z 06004KT 15SM IC FEW130 M31/M35 A2993 RMK AC1 AC TR -29.1/-35.2/TR/LAST STFD OBS/NEXT 241700 UTC SLP144
Observed Flight Rules
Jan-23 @ 21:00 UTC (7 hours ago) Visual Flight Rules
Wind Visibility Clouds Conditions
60° at 4 knots 15 miles
  • Few at 13,000' AGL
  • Ice crystals
Temperatures Readings
Current -31°C / -24°F
Dewpoint -35°C / -31°F
Humidity 68%
Altimeter 29.93" Hg
Pressure 1014.4 hPa
Elevation 45
METAR CWGZ 232100Z 06004KT 15SM IC FEW130 M31/M35 A2993 RMK AC1 AC TR -29.1/-35.2/TR/LAST STFD OBS/NEXT 241700 UTC SLP144
Observed Flight Rules
Jan-23 @ 21:00 UTC
(7 hours ago)
VFR
Wind Visibility
60° at 4 knots 15 miles
Clouds
  • Few at 13,000' AGL
Conditions
  • Ice crystals
Temperature Dewpoint
-31°C / -24°F -35°C / -31°F
Humidity Altimeter Pressure
68% 29.93" Hg 1014.4 hPa